QFA639 YSCB-YSSY
Flight info
| Callsign | QFA639 |
|---|---|
| Flight time | 0h 37m |
| Altitude | 19000 |
| Route | CB W423 CULIN Y59 RIVET |
| Aircraft | A20N/M-SDE2E3FGHIRWXY/LB1 |
Departure
| Time | 2026-05-04 08:33 |
|---|---|
| Airport | Canberra Airport (YSCB) |
Arrival
| Time | 2026-05-04 09:10 |
|---|---|
| Airport | Sydney Kingsford Smith International Airport (YSSY) |
| Time | Latitude | Longitude | Altitude | Speed | Heading |
|---|---|---|---|---|---|
| 2026-05-04 08:08 | -35.30531 | 149.18837 | 1871 ft | 0 kts | 220° |
| 2026-05-04 08:24 | -35.30520 | 149.18849 | 1871 ft | 2 kts | 220° |
| 2026-05-04 08:24 | -35.30508 | 149.18860 | 1870 ft | 2 kts | 220° |
| 2026-05-04 08:24 | -35.30501 | 149.18868 | 1867 ft | 2 kts | 220° |
| 2026-05-04 08:24 | -35.30485 | 149.18884 | 1869 ft | 2 kts | 219° |
| 2026-05-04 08:25 | -35.30474 | 149.18895 | 1874 ft | 2 kts | 212° |
| 2026-05-04 08:25 | -35.30460 | 149.18902 | 1872 ft | 2 kts | 177° |
| 2026-05-04 08:25 | -35.30449 | 149.18898 | 1872 ft | 0 kts | 134° |
| 2026-05-04 08:27 | -35.30539 | 149.19021 | 1880 ft | 2 kts | 130° |
| 2026-05-04 08:28 | -35.30613 | 149.19131 | 1881 ft | 18 kts | 132° |
| 2026-05-04 08:28 | -35.30658 | 149.19198 | 1880 ft | 10 kts | 122° |
| 2026-05-04 08:28 | -35.30682 | 149.19286 | 1884 ft | 12 kts | 98° |
| 2026-05-04 08:28 | -35.30692 | 149.19402 | 1886 ft | 14 kts | 107° |
| 2026-05-04 08:29 | -35.30774 | 149.19440 | 1881 ft | 16 kts | 179° |
| 2026-05-04 08:29 | -35.30912 | 149.19442 | 1884 ft | 24 kts | 180° |
| 2026-05-04 08:29 | -35.31097 | 149.19443 | 1881 ft | 29 kts | 180° |
| 2026-05-04 08:31 | -35.31693 | 149.19438 | 1877 ft | 0 kts | 355° |
| 2026-05-04 08:33 | -35.27089 | 149.19698 | 3545 ft | 167 kts | 1° |
| 2026-05-04 08:33 | -35.25894 | 149.19841 | 4001 ft | 181 kts | 359° |
| 2026-05-04 08:35 | -35.14498 | 149.21185 | 10151 ft | 248 kts | 359° |
| 2026-05-04 08:35 | -35.12754 | 149.21401 | 10855 ft | 267 kts | 1° |
| 2026-05-04 08:35 | -35.10831 | 149.21874 | 11277 ft | 297 kts | 9° |
| 2026-05-04 08:35 | -35.08801 | 149.22752 | 11815 ft | 319 kts | 15° |
| 2026-05-04 08:37 | -34.95745 | 149.28898 | 16945 ft | 349 kts | 14° |
| 2026-05-04 08:37 | -34.93463 | 149.29961 | 17754 ft | 353 kts | 14° |
| 2026-05-04 08:37 | -34.91153 | 149.31037 | 18523 ft | 358 kts | 14° |
| 2026-05-04 08:38 | -34.88849 | 149.32109 | 18899 ft | 361 kts | 14° |
| 2026-05-04 08:38 | -34.86501 | 149.33202 | 19026 ft | 361 kts | 14° |
| 2026-05-04 08:38 | -34.84146 | 149.34244 | 19068 ft | 360 kts | 12° |
| 2026-05-04 08:40 | -34.67539 | 149.41217 | 19071 ft | 361 kts | 12° |
| 2026-05-04 08:40 | -34.65165 | 149.42209 | 19071 ft | 362 kts | 12° |
| 2026-05-04 08:40 | -34.62814 | 149.43190 | 19071 ft | 362 kts | 12° |
| 2026-05-04 08:41 | -34.60437 | 149.44180 | 19069 ft | 362 kts | 12° |
| 2026-05-04 08:41 | -34.58055 | 149.45171 | 19072 ft | 362 kts | 12° |
| 2026-05-04 08:41 | -34.55671 | 149.46162 | 19075 ft | 362 kts | 12° |
| 2026-05-04 08:41 | -34.53290 | 149.47149 | 19073 ft | 362 kts | 12° |
| 2026-05-04 08:42 | -34.50905 | 149.48140 | 19073 ft | 362 kts | 12° |
| 2026-05-04 08:42 | -34.48518 | 149.49128 | 19074 ft | 362 kts | 12° |
| 2026-05-04 08:42 | -34.46136 | 149.50114 | 19076 ft | 362 kts | 12° |
| 2026-05-04 08:42 | -34.43748 | 149.51101 | 19073 ft | 362 kts | 12° |
| 2026-05-04 08:43 | -34.41363 | 149.52085 | 19070 ft | 362 kts | 12° |
| 2026-05-04 08:43 | -34.38973 | 149.53059 | 19070 ft | 362 kts | 12° |
| 2026-05-04 08:43 | -34.36669 | 149.54259 | 19071 ft | 371 kts | 23° |
| 2026-05-04 08:43 | -34.34629 | 149.56240 | 19071 ft | 386 kts | 41° |
| 2026-05-04 08:44 | -34.33105 | 149.58974 | 19071 ft | 399 kts | 57° |
| 2026-05-04 08:44 | -34.32065 | 149.62124 | 19071 ft | 406 kts | 65° |
| 2026-05-04 08:46 | -34.25696 | 149.84639 | 18765 ft | 403 kts | 64° |
| 2026-05-04 08:46 | -34.24743 | 149.87814 | 18524 ft | 400 kts | 64° |
| 2026-05-04 08:46 | -34.23798 | 149.90963 | 18279 ft | 398 kts | 64° |
| 2026-05-04 08:46 | -34.22855 | 149.94099 | 18008 ft | 397 kts | 64° |
| 2026-05-04 08:47 | -34.21912 | 149.97236 | 17744 ft | 396 kts | 64° |
| 2026-05-04 08:47 | -34.20975 | 150.00348 | 17477 ft | 393 kts | 64° |
| 2026-05-04 08:47 | -34.20044 | 150.03436 | 17220 ft | 391 kts | 64° |
| 2026-05-04 08:47 | -34.19112 | 150.06518 | 16959 ft | 390 kts | 64° |
| 2026-05-04 08:48 | -34.18185 | 150.09583 | 16703 ft | 388 kts | 64° |
| 2026-05-04 08:48 | -34.17412 | 150.12664 | 16446 ft | 390 kts | 70° |
| 2026-05-04 08:48 | -34.16736 | 150.15831 | 16188 ft | 388 kts | 70° |
| 2026-05-04 08:48 | -34.16062 | 150.18975 | 15750 ft | 388 kts | 70° |
| 2026-05-04 08:49 | -34.15383 | 150.22120 | 15204 ft | 386 kts | 70° |
| 2026-05-04 08:50 | -34.11431 | 150.40304 | 12040 ft | 361 kts | 70° |
| 2026-05-04 08:50 | -34.10796 | 150.43215 | 11530 ft | 357 kts | 69° |
| 2026-05-04 08:51 | -34.10166 | 150.46091 | 11035 ft | 353 kts | 70° |
| 2026-05-04 08:51 | -34.09542 | 150.48938 | 10541 ft | 349 kts | 70° |
| 2026-05-04 08:51 | -34.08930 | 150.51737 | 10322 ft | 338 kts | 70° |
| 2026-05-04 08:51 | -34.08350 | 150.54422 | 10192 ft | 324 kts | 70° |
| 2026-05-04 08:52 | -34.07801 | 150.57000 | 10043 ft | 312 kts | 70° |
| 2026-05-04 08:52 | -34.07265 | 150.59505 | 9768 ft | 304 kts | 70° |
| 2026-05-04 08:52 | -34.06741 | 150.61940 | 9482 ft | 298 kts | 70° |
| 2026-05-04 08:52 | -34.06222 | 150.64347 | 9118 ft | 295 kts | 70° |
| 2026-05-04 08:53 | -34.05708 | 150.66726 | 8765 ft | 291 kts | 70° |
| 2026-05-04 08:54 | -34.02094 | 150.83078 | 6906 ft | 302 kts | 69° |
| 2026-05-04 08:55 | -34.01534 | 150.85470 | 6774 ft | 293 kts | 69° |
| 2026-05-04 08:55 | -34.00981 | 150.87819 | 6415 ft | 290 kts | 68° |
| 2026-05-04 08:55 | -34.00432 | 150.90145 | 6090 ft | 284 kts | 68° |
| 2026-05-04 08:55 | -33.99910 | 150.92374 | 6008 ft | 278 kts | 68° |
| 2026-05-04 08:57 | -33.96759 | 151.06825 | 5998 ft | 273 kts | 70° |
| 2026-05-04 09:01 | -34.05633 | 151.34409 | 5435 ft | 287 kts | 133° |
| 2026-05-04 09:01 | -34.06991 | 151.36084 | 4684 ft | 283 kts | 133° |
| 2026-05-04 09:01 | -34.08375 | 151.37769 | 3852 ft | 282 kts | 133° |
| 2026-05-04 09:01 | -34.09749 | 151.39423 | 3148 ft | 276 kts | 133° |
| 2026-05-04 09:02 | -34.11099 | 151.41027 | 2451 ft | 269 kts | 133° |
| 2026-05-04 09:02 | -34.12469 | 151.42461 | 2100 ft | 258 kts | 148° |
| 2026-05-04 09:02 | -34.14243 | 151.43100 | 2013 ft | 274 kts | 178° |
| 2026-05-04 09:02 | -34.16092 | 151.42671 | 1991 ft | 271 kts | 208° |
| 2026-05-04 09:03 | -34.17526 | 151.41302 | 1985 ft | 254 kts | 238° |
| 2026-05-04 09:03 | -34.18197 | 151.39425 | 2000 ft | 242 kts | 262° |
| 2026-05-04 09:03 | -34.18568 | 151.37462 | 1993 ft | 238 kts | 263° |
| 2026-05-04 09:03 | -34.18905 | 151.35502 | 1987 ft | 237 kts | 268° |
| 2026-05-04 09:04 | -34.18707 | 151.33610 | 1999 ft | 224 kts | 300° |
| 2026-05-04 09:04 | -34.17871 | 151.32150 | 1986 ft | 203 kts | 313° |
| 2026-05-04 09:04 | -34.17011 | 151.30855 | 1995 ft | 197 kts | 313° |
| 2026-05-04 09:04 | -34.16152 | 151.29560 | 1994 ft | 197 kts | 313° |
| 2026-05-04 09:05 | -34.15295 | 151.28281 | 1991 ft | 196 kts | 313° |
| 2026-05-04 09:05 | -34.14439 | 151.27002 | 1990 ft | 194 kts | 313° |
| 2026-05-04 09:05 | -34.13585 | 151.25747 | 2019 ft | 193 kts | 317° |
| 2026-05-04 09:05 | -34.12613 | 151.24629 | 2053 ft | 192 kts | 323° |
| 2026-05-04 09:06 | -34.11514 | 151.23700 | 2009 ft | 195 kts | 332° |
| 2026-05-04 09:07 | -34.04649 | 151.21381 | 1560 ft | 115 kts | 350° |
| 2026-05-04 09:08 | -34.03883 | 151.21182 | 1359 ft | 113 kts | 349° |
| 2026-05-04 09:08 | -34.03100 | 151.20973 | 1249 ft | 117 kts | 349° |
| 2026-05-04 09:08 | -34.02301 | 151.20749 | 1116 ft | 114 kts | 350° |
| 2026-05-04 09:08 | -34.01520 | 151.20521 | 913 ft | 116 kts | 350° |
| 2026-05-04 09:09 | -34.00743 | 151.20310 | 739 ft | 116 kts | 353° |
| 2026-05-04 09:09 | -33.99955 | 151.20113 | 632 ft | 117 kts | 352° |
| 2026-05-04 09:09 | -33.99146 | 151.19891 | 495 ft | 117 kts | 353° |
| 2026-05-04 09:09 | -33.98377 | 151.19701 | 320 ft | 112 kts | 354° |
| 2026-05-04 09:10 | -33.97597 | 151.19513 | 176 ft | 117 kts | 353° |
| 2026-05-04 09:10 | -33.96787 | 151.19312 | 42 ft | 117 kts | 351° |
| 2026-05-04 09:10 | -33.96140 | 151.19151 | 28 ft | 56 kts | 347° |
| 2026-05-04 09:10 | -33.95961 | 151.19094 | 28 ft | 27 kts | 345° |
| 2026-05-04 09:11 | -33.95687 | 151.19030 | 24 ft | 44 kts | 347° |
| 2026-05-04 09:11 | -33.95463 | 151.18955 | 24 ft | 25 kts | 339° |
| 2026-05-04 09:11 | -33.95296 | 151.18852 | 22 ft | 29 kts | 323° |
| 2026-05-04 09:11 | -33.95215 | 151.18771 | 25 ft | 0 kts | 318° |
| 2026-05-04 09:12 | -33.95197 | 151.18751 | 26 ft | 7 kts | 318° |
| 2026-05-04 09:14 | -33.95161 | 151.18196 | 26 ft | 0 kts | 257° |
| 2026-05-04 09:14 | -33.95161 | 151.18195 | 26 ft | 1 kts | 257° |
| 2026-05-04 09:14 | -33.95165 | 151.18174 | 29 ft | 4 kts | 256° |
| 2026-05-04 09:15 | -33.95174 | 151.18127 | 26 ft | 8 kts | 260° |
| 2026-05-04 09:15 | -33.95186 | 151.18043 | 27 ft | 13 kts | 258° |
| 2026-05-04 09:15 | -33.95145 | 151.17957 | 28 ft | 13 kts | 341° |
| 2026-05-04 09:15 | -33.95049 | 151.17931 | 26 ft | 16 kts | 348° |
| 2026-05-04 09:17 | -33.94662 | 151.17831 | 23 ft | 0 kts | 346° |
| 2026-05-04 09:21 | -33.94661 | 151.17831 | 23 ft | 1 kts | 347° |
| 2026-05-04 09:21 | -33.94638 | 151.17825 | 22 ft | 5 kts | 347° |
| 2026-05-04 09:21 | -33.94617 | 151.17819 | 27 ft | 0 kts | 347° |
| 2026-05-04 09:22 | -33.94610 | 151.17817 | 26 ft | 9 kts | 347° |
| 2026-05-04 09:22 | -33.94490 | 151.17786 | 23 ft | 21 kts | 347° |
| 2026-05-04 09:22 | -33.94335 | 151.17738 | 22 ft | 25 kts | 346° |
| 2026-05-04 09:22 | -33.94174 | 151.17688 | 21 ft | 22 kts | 346° |
| 2026-05-04 09:23 | -33.94052 | 151.17656 | 21 ft | 15 kts | 348° |
| 2026-05-04 09:23 | -33.93942 | 151.17622 | 19 ft | 18 kts | 344° |
| 2026-05-04 09:23 | -33.93806 | 151.17587 | 18 ft | 21 kts | 348° |
| 2026-05-04 09:23 | -33.93653 | 151.17548 | 17 ft | 24 kts | 348° |
| 2026-05-04 09:25 | -33.93162 | 151.17447 | 22 ft | 0 kts | 345° |
| 2026-05-04 09:26 | -33.93157 | 151.17446 | 23 ft | 3 kts | 346° |
| 2026-05-04 09:26 | -33.93079 | 151.17425 | 25 ft | 18 kts | 349° |
| 2026-05-04 09:27 | -33.92994 | 151.17435 | 27 ft | 7 kts | 50° |
| 2026-05-04 09:27 | -33.92988 | 151.17471 | 29 ft | 2 kts | 86° |
| 2026-05-04 09:27 | -33.92994 | 151.17518 | 30 ft | 13 kts | 99° |
| 2026-05-04 09:27 | -33.93015 | 151.17649 | 30 ft | 18 kts | 111° |
| 2026-05-04 09:28 | -33.93064 | 151.17782 | 30 ft | 10 kts | 103° |
| 2026-05-04 09:28 | -33.93075 | 151.17863 | 30 ft | 2 kts | 133° |
| 2026-05-04 09:28 | -33.93087 | 151.17868 | 30 ft | 4 kts | 162° |
| 2026-05-04 09:28 | -33.93127 | 151.17863 | 30 ft | 8 kts | 189° |
| 2026-05-04 09:29 | -33.93163 | 151.17856 | 30 ft | 0 kts | 189° |